createdAt,value
2018-08-24T00:00:13.464Z,18.80
2018-08-24T00:02:41.438Z,18.90
2018-08-24T00:05:09.255Z,18.80
2018-08-24T00:07:37.052Z,18.60
2018-08-24T00:10:05.306Z,18.50
2018-08-24T00:12:33.222Z,18.40
2018-08-24T00:15:01.057Z,18.40
2018-08-24T00:17:30.392Z,18.40
2018-08-24T00:19:58.330Z,18.30
2018-08-24T00:22:26.213Z,18.40
2018-08-24T00:24:54.096Z,18.30
2018-08-24T00:27:21.935Z,18.30
2018-08-24T00:29:49.774Z,18.40
2018-08-24T00:32:17.626Z,18.60
2018-08-24T00:34:45.405Z,18.70
2018-08-24T00:37:13.237Z,18.70
2018-08-24T00:39:45.012Z,18.60
2018-08-24T00:42:13.668Z,18.60
2018-08-24T00:44:42.183Z,18.70
2018-08-24T00:47:10.078Z,18.70
2018-08-24T00:49:37.894Z,18.60
2018-08-24T00:52:05.769Z,18.80
2018-08-24T00:54:33.666Z,18.90
2018-08-24T00:57:01.501Z,18.80
2018-08-24T00:59:29.416Z,18.80
2018-08-24T01:01:57.353Z,18.60
2018-08-24T01:04:30.586Z,18.50
2018-08-24T01:06:58.523Z,18.50
2018-08-24T01:09:26.698Z,18.50
2018-08-24T01:11:59.974Z,18.40
2018-08-24T01:14:27.889Z,18.40
2018-08-24T01:17:01.645Z,18.40
2018-08-24T01:19:29.501Z,18.40
2018-08-24T01:21:57.336Z,18.30
2018-08-24T01:24:29.731Z,18.20
2018-08-24T01:27:04.847Z,18.10
2018-08-24T01:29:34.482Z,18.10
2018-08-24T01:32:08.830Z,18.10
2018-08-24T01:34:37.415Z,18.10
2018-08-24T01:37:05.288Z,18.10
2018-08-24T01:39:33.404Z,17.90
2018-08-24T01:42:01.239Z,17.90
2018-08-24T01:44:29.735Z,17.90
2018-08-24T01:46:57.895Z,17.80
2018-08-24T01:49:25.858Z,17.70
2018-08-24T01:51:53.802Z,17.60
2018-08-24T01:54:21.597Z,17.60
2018-08-24T01:56:49.452Z,17.50
2018-08-24T01:59:17.387Z,17.40
2018-08-24T02:01:45.203Z,17.40
2018-08-24T02:04:13.020Z,17.40
2018-08-24T02:06:40.853Z,17.50
2018-08-24T02:09:09.172Z,17.30
2018-08-24T02:11:37.124Z,17.10
2018-08-24T02:14:10.773Z,17.10
2018-08-24T02:16:39.876Z,17.00
2018-08-24T02:19:13.031Z,17.00
2018-08-24T02:21:46.293Z,17.00
2018-08-24T02:24:14.375Z,17.00
2018-08-24T02:26:43.178Z,16.90
2018-08-24T02:29:11.072Z,16.90
2018-08-24T02:31:44.463Z,16.80
2018-08-24T02:34:12.563Z,16.80
2018-08-24T02:36:40.438Z,16.80
2018-08-24T02:39:10.235Z,16.90
2018-08-24T02:41:38.053Z,16.90
2018-08-24T02:44:06.793Z,17.00
2018-08-24T02:46:34.681Z,17.00
2018-08-24T02:49:02.617Z,17.10
2018-08-24T02:51:30.551Z,17.10
2018-08-24T02:53:58.663Z,17.10
2018-08-24T02:56:26.467Z,17.00
2018-08-24T02:58:54.398Z,16.90
2018-08-24T03:01:28.255Z,16.90
2018-08-24T03:03:56.369Z,16.90
2018-08-24T03:06:24.284Z,16.90
2018-08-24T03:08:52.180Z,16.90
2018-08-24T03:11:20.158Z,16.90
2018-08-24T03:13:48.150Z,16.90
2018-08-24T03:16:16.247Z,16.80
2018-08-24T03:18:45.238Z,16.70
2018-08-24T03:21:13.140Z,16.50
2018-08-24T03:23:41.033Z,16.40
2018-08-24T03:26:08.908Z,16.30
2018-08-24T03:28:37.270Z,16.30
2018-08-24T03:31:05.099Z,16.20
2018-08-24T03:33:32.993Z,16.20
2018-08-24T03:36:00.830Z,16.10
2018-08-24T03:38:28.746Z,16.10
2018-08-24T03:40:56.601Z,16.00
2018-08-24T03:43:24.556Z,16.00
2018-08-24T03:45:52.523Z,15.90
2018-08-24T03:48:20.407Z,15.90
2018-08-24T03:50:48.282Z,15.90
2018-08-24T03:53:16.108Z,15.90
2018-08-24T03:55:44.573Z,15.90
2018-08-24T03:58:12.488Z,15.90
2018-08-24T04:00:40.308Z,16.00
2018-08-24T04:03:08.658Z,16.10
2018-08-24T04:05:36.574Z,16.10
2018-08-24T04:08:04.411Z,16.20
2018-08-24T04:10:32.225Z,16.30
2018-08-24T04:13:00.083Z,16.30
2018-08-24T04:15:27.995Z,16.40
2018-08-24T04:17:55.851Z,16.40
2018-08-24T04:20:23.727Z,16.40
2018-08-24T04:22:51.542Z,16.50
2018-08-24T04:25:19.459Z,16.50
2018-08-24T04:27:47.236Z,16.50
2018-08-24T04:30:15.050Z,16.60
2018-08-24T04:48:26.013Z,16.60
2018-08-24T04:50:56.690Z,16.60
2018-08-24T04:53:24.704Z,16.70
2018-08-24T04:55:53.140Z,16.70
2018-08-24T04:58:23.053Z,16.70
2018-08-24T05:00:51.382Z,16.70
2018-08-24T05:03:26.464Z,16.70
2018-08-24T05:06:05.899Z,16.70
2018-08-24T05:08:35.609Z,16.80
2018-08-24T05:11:05.649Z,16.70
2018-08-24T05:13:35.871Z,16.80
2018-08-24T05:16:04.776Z,16.70
2018-08-24T05:18:32.874Z,16.80
2018-08-24T05:21:01.030Z,16.80
2018-08-24T05:23:28.905Z,16.80
2018-08-24T05:25:56.860Z,16.80
2018-08-24T05:31:00.453Z,16.90
2018-08-24T05:36:04.359Z,16.90
2018-08-24T05:38:33.775Z,17.10
2018-08-24T05:41:03.051Z,17.00
2018-08-24T05:43:32.025Z,17.00
2018-08-24T05:45:59.844Z,17.10
2018-08-24T05:48:43.973Z,17.00
2018-08-24T05:51:12.130Z,17.10
2018-08-24T05:53:39.987Z,17.10
2018-08-24T05:56:09.764Z,17.10
2018-08-24T05:58:38.215Z,17.20
2018-08-24T06:01:07.367Z,17.10
2018-08-24T06:03:37.398Z,17.20
2018-08-24T06:06:05.940Z,17.20
2018-08-24T06:08:35.296Z,17.20
2018-08-24T06:11:09.051Z,17.20
2018-08-24T06:13:38.339Z,17.30
2018-08-24T06:16:07.084Z,17.20
2018-08-24T06:18:35.697Z,17.20
2018-08-24T06:21:04.847Z,17.30
2018-08-24T06:23:33.527Z,17.20
2018-08-24T06:26:02.302Z,17.30
2018-08-24T06:28:31.297Z,17.30
2018-08-24T06:31:00.546Z,17.20
2018-08-24T06:33:30.147Z,17.20
2018-08-24T06:36:00.191Z,17.20
2018-08-24T06:38:29.519Z,17.20
2018-08-24T06:43:31.648Z,17.30
2018-08-24T06:45:59.820Z,17.20
2018-08-24T06:51:08.293Z,17.20
2018-08-24T06:53:37.484Z,17.30
2018-08-24T06:56:06.903Z,17.30
2018-08-24T06:58:36.638Z,17.30
2018-08-24T07:01:05.195Z,17.30
2018-08-24T07:03:42.609Z,17.30
2018-08-24T07:06:11.392Z,17.40
2018-08-24T07:08:44.064Z,17.30
2018-08-24T07:11:16.669Z,17.40
2018-08-24T07:13:45.588Z,17.50
2018-08-24T07:16:13.863Z,17.40
2018-08-24T07:18:42.538Z,17.50
2018-08-24T07:21:10.394Z,17.60
2018-08-24T07:23:38.327Z,17.50
2018-08-24T07:26:07.923Z,17.60
2018-08-24T07:28:35.924Z,17.60
2018-08-24T07:31:09.061Z,17.70
2018-08-24T07:33:37.020Z,17.60
2018-08-24T07:36:08.605Z,17.60
2018-08-24T07:38:36.399Z,17.60
2018-08-24T07:41:04.195Z,17.50
2018-08-24T07:43:31.971Z,17.40
2018-08-24T07:45:59.747Z,17.50
2018-08-24T07:48:27.853Z,17.40
2018-08-24T07:50:55.888Z,17.40
2018-08-24T07:53:23.976Z,17.50
2018-08-24T07:55:52.174Z,17.60
2018-08-24T07:58:20.134Z,17.60
2018-08-24T08:00:48.156Z,17.60
2018-08-24T08:03:16.062Z,17.70
2018-08-24T08:05:43.986Z,17.80
2018-08-24T08:08:12.061Z,17.90
2018-08-24T08:10:41.016Z,18.20
2018-08-24T08:13:11.210Z,18.20
2018-08-24T08:15:41.128Z,18.20
2018-08-24T08:18:09.843Z,18.10
2018-08-24T08:20:38.876Z,18.20
2018-08-24T08:23:07.975Z,17.90
2018-08-24T08:25:37.664Z,17.90
2018-08-24T08:28:05.456Z,18.40
2018-08-24T08:30:34.667Z,18.40
2018-08-24T08:33:03.651Z,18.40
2018-08-24T08:35:39.028Z,18.20
2018-08-24T08:38:09.401Z,18.00
2018-08-24T08:40:39.400Z,17.90
2018-08-24T08:43:08.427Z,17.90
2018-08-24T08:45:37.277Z,17.90
2018-08-24T08:48:16.041Z,18.20
2018-08-24T08:50:44.077Z,18.30
2018-08-24T08:53:12.652Z,18.80
2018-08-24T08:55:40.533Z,20.00
2018-08-24T08:58:08.502Z,21.00
2018-08-24T09:00:38.974Z,21.70
2018-08-24T09:03:07.416Z,23.30
2018-08-24T09:05:35.602Z,24.50
2018-08-24T09:08:03.842Z,24.20
2018-08-24T09:10:32.390Z,23.50
2018-08-24T09:13:03.275Z,23.40
2018-08-24T09:15:31.389Z,22.80
2018-08-24T09:18:05.604Z,22.30
2018-08-24T09:20:39.780Z,21.40
2018-08-24T09:23:13.553Z,22.40
2018-08-24T09:25:47.668Z,23.50
2018-08-24T09:28:22.727Z,24.40
2018-08-24T09:30:55.918Z,25.50
2018-08-24T09:33:24.874Z,24.40
2018-08-24T09:35:56.509Z,24.00
2018-08-24T09:38:25.453Z,23.30
2018-08-24T09:40:57.659Z,22.70
2018-08-24T09:43:31.794Z,22.10
2018-08-24T09:46:00.830Z,21.70
2018-08-24T09:48:31.818Z,21.50
2018-08-24T09:51:06.400Z,21.10
2018-08-24T09:53:40.416Z,21.10
2018-08-24T09:56:09.948Z,21.40
2018-08-24T09:58:39.484Z,21.30
2018-08-24T10:01:12.849Z,21.30
2018-08-24T10:03:46.055Z,21.40
2018-08-24T10:06:20.687Z,21.60
2018-08-24T10:08:51.087Z,21.90
2018-08-24T10:11:20.904Z,21.90
2018-08-24T10:13:50.508Z,21.70
2018-08-24T10:16:18.393Z,21.20
2018-08-24T10:18:49.387Z,21.30
2018-08-24T10:21:17.787Z,21.50
2018-08-24T10:23:45.637Z,21.50
2018-08-24T10:26:13.651Z,21.30
2018-08-24T10:28:41.615Z,21.60
2018-08-24T10:31:11.644Z,21.90
2018-08-24T10:33:39.791Z,21.80
2018-08-24T10:36:10.411Z,22.20
2018-08-24T10:38:39.457Z,21.50
2018-08-24T10:41:11.756Z,21.20
2018-08-24T10:43:42.239Z,21.30
2018-08-24T10:46:10.298Z,21.40
2018-08-24T10:48:38.196Z,21.60
2018-08-24T10:51:07.121Z,21.80
2018-08-24T10:53:35.675Z,21.40
2018-08-24T10:56:04.303Z,21.90
2018-08-24T10:58:32.307Z,21.80
2018-08-24T11:01:01.053Z,22.30
2018-08-24T11:03:30.371Z,22.30
2018-08-24T11:05:59.577Z,21.80
2018-08-24T11:08:28.281Z,21.90
2018-08-24T11:10:57.390Z,22.00
2018-08-24T11:13:25.315Z,22.00
2018-08-24T11:15:54.439Z,22.20
2018-08-24T11:18:23.583Z,22.50
2018-08-24T11:20:52.837Z,22.30
2018-08-24T11:23:22.036Z,22.50
2018-08-24T11:25:50.067Z,22.60
2018-08-24T11:28:17.968Z,22.60
2018-08-24T11:30:45.951Z,22.30
2018-08-24T11:35:49.295Z,22.70
2018-08-24T11:38:17.834Z,22.90
2018-08-24T11:40:48.184Z,22.80
2018-08-24T11:43:16.160Z,22.80
2018-08-24T11:45:44.165Z,23.20
2018-08-24T11:48:11.920Z,23.10
2018-08-24T11:50:45.068Z,22.90
2018-08-24T11:53:18.750Z,23.00
2018-08-24T11:55:47.280Z,23.50
2018-08-24T11:58:17.104Z,23.60
2018-08-24T12:00:47.339Z,23.00
2018-08-24T12:03:15.243Z,22.90
2018-08-24T12:05:43.155Z,23.20
2018-08-24T12:08:12.028Z,22.90
2018-08-24T12:10:40.767Z,22.60
2018-08-24T12:13:08.874Z,22.90
2018-08-24T12:15:40.330Z,22.90
2018-08-24T12:18:09.106Z,22.80
2018-08-24T12:20:38.291Z,22.50
2018-08-24T12:23:06.749Z,22.40
2018-08-24T12:25:36.531Z,22.70
2018-08-24T12:28:04.788Z,23.00
2018-08-24T12:30:40.020Z,23.20
2018-08-24T12:33:07.917Z,23.30
2018-08-24T12:35:35.803Z,23.60
2018-08-24T12:38:04.698Z,23.70
2018-08-24T12:40:35.943Z,23.40
2018-08-24T12:43:07.493Z,23.50
2018-08-24T12:45:35.551Z,23.20
2018-08-24T12:48:04.030Z,22.90
2018-08-24T12:50:32.085Z,22.30
2018-08-24T12:53:00.301Z,22.40
2018-08-24T12:55:28.016Z,22.50
2018-08-24T12:57:56.552Z,22.80
2018-08-24T13:00:25.849Z,23.10
2018-08-24T13:02:56.075Z,23.10
2018-08-24T13:05:31.431Z,23.20
2018-08-24T13:08:00.436Z,22.70
2018-08-24T13:10:29.169Z,23.00
2018-08-24T13:12:58.864Z,23.20
2018-08-24T13:15:27.811Z,23.40
2018-08-24T13:17:56.354Z,23.00
2018-08-24T13:23:03.486Z,23.40
2018-08-24T13:25:33.106Z,23.30
2018-08-24T13:28:02.535Z,23.10
2018-08-24T13:30:31.631Z,23.30
2018-08-24T13:33:02.047Z,23.40
2018-08-24T13:35:37.081Z,23.20
2018-08-24T13:38:06.684Z,23.30
2018-08-24T13:40:36.405Z,23.40
2018-08-24T13:43:05.469Z,23.30
2018-08-24T13:45:34.366Z,23.10
2018-08-24T13:48:05.119Z,23.30
2018-08-24T13:50:34.226Z,23.20
2018-08-24T13:53:03.290Z,23.00
2018-08-24T13:55:32.441Z,23.10
2018-08-24T13:58:01.622Z,23.00
2018-08-24T14:00:30.457Z,23.20
2018-08-24T14:02:59.258Z,23.20
2018-08-24T14:05:31.680Z,23.40
2018-08-24T14:08:00.423Z,23.40
2018-08-24T14:10:30.457Z,23.20
2018-08-24T14:13:00.350Z,23.40
2018-08-24T14:15:29.598Z,23.00
2018-08-24T14:17:59.867Z,23.50
2018-08-24T14:20:28.863Z,23.10
2018-08-24T14:22:57.634Z,23.10
2018-08-24T14:25:27.980Z,23.00
2018-08-24T14:27:57.820Z,22.90
2018-08-24T14:30:26.652Z,22.80
2018-08-24T14:32:55.096Z,22.90
2018-08-24T14:35:23.891Z,22.70
2018-08-24T14:37:52.728Z,22.80
2018-08-24T14:40:21.631Z,22.60
2018-08-24T14:42:49.697Z,22.50
2018-08-24T14:45:21.473Z,22.70
2018-08-24T14:47:49.606Z,22.70
2018-08-24T14:50:18.956Z,22.50
2018-08-24T14:52:48.259Z,22.50
2018-08-24T14:55:17.262Z,22.20
2018-08-24T14:57:46.472Z,22.40
2018-08-24T15:00:16.866Z,22.30
2018-08-24T15:02:45.627Z,22.00
2018-08-24T15:05:14.896Z,22.00
2018-08-24T15:07:43.951Z,21.80
2018-08-24T15:10:13.384Z,21.90
2018-08-24T15:12:42.960Z,21.70
2018-08-24T15:15:11.916Z,22.00
2018-08-24T15:20:17.704Z,21.60
2018-08-24T15:22:47.839Z,21.70
2018-08-24T15:25:18.026Z,21.70
2018-08-24T15:27:46.292Z,21.60
2018-08-24T15:30:14.199Z,21.60
2018-08-24T15:32:43.504Z,21.50
2018-08-24T15:35:12.678Z,21.50
2018-08-24T15:37:45.552Z,21.30
2018-08-24T15:40:16.090Z,21.30
2018-08-24T15:42:45.884Z,21.10
2018-08-24T15:45:16.560Z,20.80
2018-08-24T15:47:45.269Z,20.90
2018-08-24T15:50:15.371Z,20.80
2018-08-24T15:52:44.309Z,20.80
2018-08-24T15:55:13.273Z,20.70
2018-08-24T15:57:42.293Z,20.80
2018-08-24T16:00:11.103Z,20.70
2018-08-24T16:02:45.705Z,20.50
2018-08-24T16:05:17.722Z,20.40
2018-08-24T16:07:51.514Z,20.40
2018-08-24T16:10:20.111Z,20.20
2018-08-24T16:12:48.787Z,20.40
2018-08-24T16:15:18.246Z,20.30
2018-08-24T16:17:51.491Z,20.40
2018-08-24T16:20:20.783Z,20.30
2018-08-24T16:22:50.656Z,20.30
2018-08-24T16:25:19.137Z,20.20
2018-08-24T16:27:48.478Z,20.20
2018-08-24T16:30:20.737Z,20.10
2018-08-24T16:32:49.372Z,20.10
2018-08-24T16:35:18.025Z,20.10
2018-08-24T16:37:46.723Z,20.20
2018-08-24T16:40:15.355Z,20.10
2018-08-24T16:42:44.052Z,20.00
2018-08-24T16:45:12.566Z,20.00
2018-08-24T16:47:41.566Z,19.80
2018-08-24T16:50:10.476Z,19.90
2018-08-24T16:52:41.332Z,20.00
2018-08-24T16:55:09.987Z,20.20
2018-08-24T16:57:39.341Z,20.40
2018-08-24T17:00:08.775Z,20.40
2018-08-24T17:02:38.090Z,20.20
2018-08-24T17:05:09.953Z,20.20
2018-08-24T17:07:59.387Z,20.10
2018-08-24T17:10:28.018Z,20.00
2018-08-24T17:12:56.812Z,19.80
2018-08-24T17:15:25.459Z,19.80
2018-08-24T17:17:54.204Z,19.80
2018-08-24T17:20:29.013Z,19.70
2018-08-24T17:22:57.715Z,19.50
2018-08-24T17:25:26.553Z,19.40
2018-08-24T17:27:55.686Z,19.30
2018-08-24T17:30:25.410Z,19.40
2018-08-24T17:32:53.961Z,19.30
2018-08-24T17:35:25.174Z,19.40
2018-08-24T17:37:56.875Z,19.30
2018-08-24T17:40:25.781Z,19.10
2018-08-24T17:42:54.557Z,19.20
2018-08-24T17:45:25.752Z,19.00
2018-08-24T17:47:54.634Z,19.00
2018-08-24T17:50:23.304Z,19.00
2018-08-24T17:52:52.037Z,19.00
2018-08-24T17:55:21.113Z,18.90
2018-08-24T17:57:49.747Z,18.80
2018-08-24T18:00:18.323Z,18.80
2018-08-24T18:02:47.380Z,18.80
2018-08-24T18:05:15.872Z,18.70
2018-08-24T18:07:45.156Z,18.60
2018-08-24T18:10:14.024Z,18.70
2018-08-24T18:12:44.259Z,18.70
2018-08-24T18:15:13.238Z,18.60
2018-08-24T18:17:41.925Z,18.60
2018-08-24T18:20:11.168Z,18.50
2018-08-24T18:22:42.960Z,18.50
2018-08-24T18:25:12.257Z,18.40
2018-08-24T18:27:41.945Z,18.30
2018-08-24T18:30:23.626Z,18.30
2018-08-24T18:33:04.367Z,18.30
2018-08-24T18:35:33.736Z,18.10
2018-08-24T18:38:06.582Z,18.10
2018-08-24T18:40:36.916Z,18.10
2018-08-24T18:46:06.627Z,18.00
2018-08-24T18:48:35.333Z,18.10
2018-08-24T18:51:04.067Z,18.00
2018-08-24T18:53:32.782Z,17.90
2018-08-24T18:56:01.418Z,17.80
2018-08-24T18:58:30.073Z,17.80
2018-08-24T19:00:58.753Z,17.70
2018-08-24T19:03:27.528Z,17.70
2018-08-24T19:05:56.120Z,17.60
2018-08-24T19:08:24.837Z,17.60
2018-08-24T19:10:58.771Z,17.50
2018-08-24T19:13:27.466Z,17.40
2018-08-24T19:15:56.142Z,17.40
2018-08-24T19:18:30.316Z,17.40
2018-08-24T19:21:04.214Z,17.40
2018-08-24T19:23:32.907Z,17.40
2018-08-24T19:26:01.683Z,17.50
2018-08-24T19:28:35.619Z,17.60
2018-08-24T19:31:05.495Z,17.30
2018-08-24T19:33:34.090Z,17.30
2018-08-24T19:36:02.713Z,17.30
2018-08-24T19:38:31.441Z,17.10
2018-08-24T19:41:05.196Z,17.10
2018-08-24T19:43:33.891Z,17.10
2018-08-24T19:46:02.627Z,17.10
2018-08-24T19:48:36.582Z,17.10
2018-08-24T19:51:05.298Z,17.10
2018-08-24T19:53:33.934Z,17.10
2018-08-24T19:56:02.568Z,17.10
2018-08-24T19:58:36.590Z,17.10
2018-08-24T20:01:05.200Z,17.10
2018-08-24T20:03:33.835Z,17.10
2018-08-24T20:06:07.716Z,17.10
2018-08-24T20:08:41.563Z,17.10
2018-08-24T20:11:10.242Z,17.10
2018-08-24T20:13:38.936Z,17.00
2018-08-24T20:16:12.985Z,17.00
2018-08-24T20:18:41.734Z,16.90
2018-08-24T20:21:10.563Z,16.80
2018-08-24T20:23:39.238Z,16.70
2018-08-24T20:26:07.954Z,16.70
2018-08-24T20:28:36.589Z,16.70
2018-08-24T20:31:05.485Z,16.60
2018-08-24T20:33:34.180Z,16.50
2018-08-24T20:36:02.789Z,16.40
2018-08-24T20:38:31.471Z,16.30
2018-08-24T20:41:00.208Z,16.30
2018-08-24T20:43:28.883Z,16.30
2018-08-24T20:45:57.617Z,16.20
2018-08-24T20:48:26.339Z,16.20
2018-08-24T20:50:55.048Z,16.20
2018-08-24T20:53:23.725Z,16.20
2018-08-24T20:55:52.539Z,16.20
2018-08-24T20:58:21.375Z,16.20
2018-08-24T21:00:50.251Z,16.30
2018-08-24T21:03:18.980Z,16.20
2018-08-24T21:05:47.787Z,16.20
2018-08-24T21:08:16.499Z,16.20
2018-08-24T21:10:45.252Z,16.10
2018-08-24T21:13:13.949Z,16.10
2018-08-24T21:15:42.744Z,16.10
2018-08-24T21:18:11.420Z,16.10
2018-08-24T21:20:40.216Z,16.10
2018-08-24T21:23:09.070Z,16.10
2018-08-24T21:25:37.947Z,16.00
2018-08-24T21:28:06.881Z,16.00
2018-08-24T21:30:35.679Z,16.00
2018-08-24T21:33:04.449Z,15.90
2018-08-24T21:35:33.110Z,15.90
2018-08-24T21:38:01.744Z,15.90
2018-08-24T21:40:30.359Z,15.90
2018-08-24T21:42:58.886Z,15.80
2018-08-24T21:45:27.631Z,15.80
2018-08-24T21:47:56.325Z,15.80
2018-08-24T21:50:25.161Z,15.80
2018-08-24T21:52:53.836Z,15.80
2018-08-24T21:55:22.491Z,15.80
2018-08-24T21:57:51.131Z,15.80
2018-08-24T22:00:19.883Z,15.80
2018-08-24T22:02:48.678Z,15.80
2018-08-24T22:05:17.400Z,15.80
2018-08-24T22:07:45.969Z,15.80
2018-08-24T22:10:14.584Z,15.80
2018-08-24T22:12:43.179Z,15.90
2018-08-24T22:15:11.875Z,15.80
2018-08-24T22:17:40.530Z,15.80
2018-08-24T22:20:09.188Z,15.80
2018-08-24T22:22:37.823Z,15.80
2018-08-24T22:25:06.556Z,15.80
2018-08-24T22:27:35.213Z,15.80
2018-08-24T22:30:03.871Z,15.80
2018-08-24T22:32:32.502Z,15.80
2018-08-24T22:35:01.152Z,15.80
2018-08-24T22:37:30.032Z,15.80
2018-08-24T22:39:58.610Z,15.80
2018-08-24T22:42:27.283Z,15.80
2018-08-24T22:44:56.019Z,15.70
2018-08-24T22:47:24.675Z,15.80
2018-08-24T22:49:53.393Z,15.70
2018-08-24T22:52:22.025Z,15.70
2018-08-24T22:54:50.621Z,15.80
2018-08-24T22:57:19.497Z,15.70
2018-08-24T22:59:48.222Z,15.70
2018-08-24T23:02:16.940Z,15.70
2018-08-24T23:04:45.663Z,15.70
2018-08-24T23:07:14.258Z,15.70
2018-08-24T23:09:42.852Z,15.60
2018-08-24T23:12:11.548Z,15.70
2018-08-24T23:14:40.164Z,15.70
2018-08-24T23:17:08.759Z,15.60
2018-08-24T23:19:37.868Z,15.50
2018-08-24T23:22:06.470Z,15.50
2018-08-24T23:24:35.153Z,15.50
2018-08-24T23:27:03.880Z,15.50
2018-08-24T23:29:32.476Z,15.50
2018-08-24T23:32:01.598Z,15.50
2018-08-24T23:34:30.328Z,15.50
2018-08-24T23:36:58.986Z,15.40
2018-08-24T23:39:27.757Z,15.50
2018-08-24T23:41:56.492Z,15.40
2018-08-24T23:44:25.228Z,15.40
2018-08-24T23:46:53.903Z,15.40
2018-08-24T23:49:22.699Z,15.40
2018-08-24T23:51:51.413Z,15.40
2018-08-24T23:54:20.109Z,15.40
2018-08-24T23:56:48.765Z,15.40
2018-08-24T23:59:17.368Z,15.40
